OEJNOMFJ

Guest
Details From OEJN - Jeddah King Abdulaziz Intl
To OMFJ - Fujairah Intl
Flight Number -
Tags Generated
Created
Modified
Stats Distance 967 nm / 1,791 km
Max Altitude 0 ft / 0 m
Waypoints 4
Social Downloads 0
Likes 0
Share VATSIM

Download

Looking for another format? Having issues loading an existing format? Contact us
Advertisement - Login to hide

Notes

Generated

Route

OEJN TERRI AVAMI OMFJ

ID Type Via Altitude Latitude Longitude Leg Dist Tot Dist Heading (true) Name
O OEJN APT - 0 ft / 0 m 21.68913˚ 39.15388˚ - 0 nm - -
TERRI FIX - 0 ft / 0 m 23.88595˚ 47.59514˚ 485 nm 485 nm 73° / 76° -
AVAMI FIX - 0 ft / 0 m 25.09833˚ 55.94639˚ 462 nm 947 nm 79° / 83° -
O OMFJ APT - 0 ft / 0 m 25.11857˚ 56.30703˚ 19 nm 967 nm 86° / 87° -

Altitude Profile

Advertisement - Login to hide

Weather


0- 5 10 15 20 25 30 35+ Temperature / ° C

Clouds and Precipitation
Forecast for 2017-12-11 06:00 UTC. Updated an hour ago

Ground ~20,000 ft ~40,000 ft Winds

OEJN

Details ICAO OEJN (JED)
Name Jeddah King Abdulaziz Intl
Region Saudi Arabia
Timezone Asia/Riyadh (UTC+3.0)
Stats Elevation 48 ft / 15 m (AMSL)
Location 21.681319° 39.155647°
Runways 3
Magnetic Variation 3.513° E

METAR

OEJN 110200Z 09003KT 8000 SKC 24/07 Q1015 NOSIG

Decode

TAF

Not found

Departure Runways

ID Width Length Bearing (true) Bearing (mag) Surface Threshold Offset Overrun Length
16C 197 ft / 60 m 10,866 ft / 3,312 m 159.86° 156.35° Concrete 500 ft / 152 m 0 ft / 0 m
16L 148 ft / 45 m 12,151 ft / 3,704 m 159.87° 156.36° Asphalt 800 ft / 244 m 0 ft / 0 m
16R 197 ft / 60 m 12,514 ft / 3,814 m 159.86° 156.35° Concrete 0 ft / 0 m 394 ft / 120 m
34C 197 ft / 60 m 10,866 ft / 3,312 m 339.87° 336.36° Concrete 500 ft / 152 m 0 ft / 0 m
34L 197 ft / 60 m 12,514 ft / 3,814 m 339.86° 336.35° Concrete 0 ft / 0 m 394 ft / 120 m
34R 148 ft / 45 m 12,151 ft / 3,704 m 339.88° 336.37° Asphalt 800 ft / 244 m 0 ft / 0 m

OMFJ

Details ICAO OMFJ (FJR)
Name FUJAIRAH INTL
Region United Arab Emirates
Timezone Asia/Dubai (UTC+4.0)
Stats Elevation 152 ft / 46 m (AMSL)
Location 25.112116° 56.324217°
Runways 1
Magnetic Variation 1.921° E

METAR

OMFJ 110200Z 29009KT CAVOK 19/10 Q1018 A3007

Decode

TAF

Not found

Destination Runways

ID Width Length Bearing (true) Bearing (mag) Surface Threshold Offset Overrun Length
11 148 ft / 45 m 12,296 ft / 3,748 m 112.53° 110.61° Asphalt 2,296 ft / 700 m 328 ft / 100 m
29 148 ft / 45 m 12,296 ft / 3,748 m 292.55° 290.63° Asphalt 0 ft / 0 m 328 ft / 100 m

Approach Navaids

Runway Type Ident Frequency Range Bearing (true) Bearing (mag) Slope Elevation
29 Localiser IFJR 111.50 MHz 18 nm / 33 km 292.53° 290.61° - 152 ft / 46 m (AMSL)
29 Glidescope IFJR 111.50 MHz 10 nm / 19 km 292.54° 290.62° 3.00° 152 ft / 46 m (AMSL)

Popular Alternatives